Terminal Aerodrome Forecast
Issued by NWS

Home | Current Version | Previous Version | Text Only | Print | Product List | Glossary On
Versions: 1 2 3 4 5 6 7 8 9 10 11 12
000
FTUS42 KGSP 231125
TAFAND
TAF
KAND 231125Z 2312/2412 22004KT P6SM FEW250
     FM231500 25007KT P6SM SCT050
     FM231700 26008KT P6SM VCSH BKN050
      TEMPO 2318/2322 4SM -TSRA OVC035CB
     FM232200 28006KT P6SM BKN050 PROB30 2323/2402 4SM -TSRA
      OVC040CB
     FM240500 36004KT P6SM SCT050
     FM241000 03005KT P6SM SCT050=

USA.gov is the U.S. government's official web portal to all federal, state and local government web resources and services.